sensor_id;sensor_type;location;lat;lon;timestamp;P1;durP1;ratioP1;P2;durP2;ratioP2
53261;SDS011;39658;51.090;-1.786;2022-07-10T00:00:04;6.65;;;1.83;;
53261;SDS011;39658;51.090;-1.786;2022-07-10T00:02:33;9.40;;;1.85;;
53261;SDS011;39658;51.090;-1.786;2022-07-10T00:05:00;6.05;;;1.65;;
53261;SDS011;39658;51.090;-1.786;2022-07-10T00:07:27;7.45;;;1.95;;
53261;SDS011;39658;51.090;-1.786;2022-07-10T00:09:53;7.82;;;1.50;;
53261;SDS011;39658;51.090;-1.786;2022-07-10T00:12:20;8.35;;;1.60;;
53261;SDS011;39658;51.090;-1.786;2022-07-10T00:14:48;8.35;;;1.90;;
53261;SDS011;39658;51.090;-1.786;2022-07-10T00:17:15;7.03;;;1.70;;
53261;SDS011;39658;51.090;-1.786;2022-07-10T00:19:42;13.47;;;2.10;;
53261;SDS011;39658;51.090;-1.786;2022-07-10T00:22:09;8.15;;;2.15;;
53261;SDS011;39658;51.090;-1.786;2022-07-10T00:24:36;8.13;;;2.05;;
53261;SDS011;39658;51.090;-1.786;2022-07-10T00:27:03;12.65;;;2.17;;
53261;SDS011;39658;51.090;-1.786;2022-07-10T00:29:30;10.02;;;2.00;;
53261;SDS011;39658;51.090;-1.786;2022-07-10T00:31:59;8.80;;;1.90;;
53261;SDS011;39658;51.090;-1.786;2022-07-10T00:34:25;6.32;;;1.80;;
53261;SDS011;39658;51.090;-1.786;2022-07-10T00:36:52;5.97;;;1.98;;
53261;SDS011;39658;51.090;-1.786;2022-07-10T00:39:19;9.48;;;2.00;;
53261;SDS011;39658;51.090;-1.786;2022-07-10T00:41:46;7.43;;;2.10;;
53261;SDS011;39658;51.090;-1.786;2022-07-10T00:44:13;7.55;;;2.03;;
53261;SDS011;39658;51.090;-1.786;2022-07-10T00:46:40;6.45;;;2.05;;
53261;SDS011;39658;51.090;-1.786;2022-07-10T00:49:08;6.47;;;2.28;;
53261;SDS011;39658;51.090;-1.786;2022-07-10T00:51:35;6.63;;;2.53;;
53261;SDS011;39658;51.090;-1.786;2022-07-10T00:54:03;8.25;;;2.25;;
53261;SDS011;39658;51.090;-1.786;2022-07-10T00:56:31;12.15;;;2.42;;
53261;SDS011;39658;51.090;-1.786;2022-07-10T00:58:58;7.63;;;2.17;;
53261;SDS011;39658;51.090;-1.786;2022-07-10T01:01:26;5.55;;;2.03;;
53261;SDS011;39658;51.090;-1.786;2022-07-10T01:03:53;8.68;;;2.50;;
53261;SDS011;39658;51.090;-1.786;2022-07-10T01:06:21;11.25;;;2.22;;
53261;SDS011;39658;51.090;-1.786;2022-07-10T01:08:48;7.22;;;1.90;;
53261;SDS011;39658;51.090;-1.786;2022-07-10T01:11:15;6.68;;;2.17;;
53261;SDS011;39658;51.090;-1.786;2022-07-10T01:13:42;5.75;;;1.90;;
53261;SDS011;39658;51.090;-1.786;2022-07-10T01:16:09;7.03;;;2.05;;
53261;SDS011;39658;51.090;-1.786;2022-07-10T01:18:36;6.90;;;2.00;;
53261;SDS011;39658;51.090;-1.786;2022-07-10T01:21:05;7.40;;;1.83;;
53261;SDS011;39658;51.090;-1.786;2022-07-10T01:23:32;7.23;;;2.07;;
53261;SDS011;39658;51.090;-1.786;2022-07-10T01:25:59;7.95;;;2.10;;
53261;SDS011;39658;51.090;-1.786;2022-07-10T01:28:27;6.88;;;1.90;;
53261;SDS011;39658;51.090;-1.786;2022-07-10T01:30:57;6.22;;;2.03;;
53261;SDS011;39658;51.090;-1.786;2022-07-10T01:33:24;11.13;;;1.90;;
53261;SDS011;39658;51.090;-1.786;2022-07-10T01:35:51;6.45;;;2.17;;
53261;SDS011;39658;51.090;-1.786;2022-07-10T01:38:19;5.22;;;1.75;;
53261;SDS011;39658;51.090;-1.786;2022-07-10T01:40:46;8.00;;;2.10;;
53261;SDS011;39658;51.090;-1.786;2022-07-10T01:43:12;6.20;;;2.05;;
53261;SDS011;39658;51.090;-1.786;2022-07-10T01:45:39;5.40;;;1.80;;
53261;SDS011;39658;51.090;-1.786;2022-07-10T01:48:06;6.95;;;2.08;;
53261;SDS011;39658;51.090;-1.786;2022-07-10T01:50:33;8.07;;;2.40;;
53261;SDS011;39658;51.090;-1.786;2022-07-10T01:53:00;9.23;;;1.70;;
53261;SDS011;39658;51.090;-1.786;2022-07-10T01:55:31;10.07;;;2.20;;
53261;SDS011;39658;51.090;-1.786;2022-07-10T01:57:57;6.07;;;1.92;;
53261;SDS011;39658;51.090;-1.786;2022-07-10T02:00:24;7.72;;;2.45;;
53261;SDS011;39658;51.090;-1.786;2022-07-10T02:02:51;7.47;;;2.38;;
53261;SDS011;39658;51.090;-1.786;2022-07-10T02:05:32;6.55;;;2.30;;
53261;SDS011;39658;51.090;-1.786;2022-07-10T02:07:58;10.15;;;2.75;;
53261;SDS011;39658;51.090;-1.786;2022-07-10T02:10:25;7.28;;;2.60;;
53261;SDS011;39658;51.090;-1.786;2022-07-10T02:12:53;6.88;;;2.50;;
53261;SDS011;39658;51.090;-1.786;2022-07-10T02:15:21;8.70;;;2.63;;
53261;SDS011;39658;51.090;-1.786;2022-07-10T02:17:48;6.72;;;2.30;;
53261;SDS011;39658;51.090;-1.786;2022-07-10T02:20:14;9.93;;;2.55;;
53261;SDS011;39658;51.090;-1.786;2022-07-10T02:22:41;6.72;;;2.25;;
53261;SDS011;39658;51.090;-1.786;2022-07-10T02:25:08;5.88;;;2.20;;
53261;SDS011;39658;51.090;-1.786;2022-07-10T02:27:35;11.10;;;2.30;;
53261;SDS011;39658;51.090;-1.786;2022-07-10T02:30:04;9.60;;;2.63;;
53261;SDS011;39658;51.090;-1.786;2022-07-10T02:32:31;5.78;;;2.08;;
53261;SDS011;39658;51.090;-1.786;2022-07-10T02:34:58;6.65;;;2.20;;
53261;SDS011;39658;51.090;-1.786;2022-07-10T02:37:25;8.32;;;2.20;;
53261;SDS011;39658;51.090;-1.786;2022-07-10T02:39:52;6.70;;;2.00;;
53261;SDS011;39658;51.090;-1.786;2022-07-10T02:42:19;6.22;;;2.25;;
53261;SDS011;39658;51.090;-1.786;2022-07-10T02:44:45;6.47;;;1.98;;
53261;SDS011;39658;51.090;-1.786;2022-07-10T02:47:14;8.25;;;2.58;;
53261;SDS011;39658;51.090;-1.786;2022-07-10T02:49:40;8.60;;;2.08;;
53261;SDS011;39658;51.090;-1.786;2022-07-10T02:52:08;9.90;;;2.30;;
53261;SDS011;39658;51.090;-1.786;2022-07-10T02:54:35;7.10;;;1.92;;
53261;SDS011;39658;51.090;-1.786;2022-07-10T02:57:02;6.35;;;2.20;;
53261;SDS011;39658;51.090;-1.786;2022-07-10T02:59:30;7.22;;;1.92;;
53261;SDS011;39658;51.090;-1.786;2022-07-10T03:01:56;6.78;;;2.10;;
53261;SDS011;39658;51.090;-1.786;2022-07-10T03:04:25;7.15;;;2.03;;
53261;SDS011;39658;51.090;-1.786;2022-07-10T03:06:52;6.03;;;1.90;;
53261;SDS011;39658;51.090;-1.786;2022-07-10T03:09:19;5.45;;;1.90;;
53261;SDS011;39658;51.090;-1.786;2022-07-10T03:11:46;8.05;;;2.13;;
53261;SDS011;39658;51.090;-1.786;2022-07-10T03:14:12;6.68;;;1.92;;
53261;SDS011;39658;51.090;-1.786;2022-07-10T03:16:39;6.25;;;2.00;;
53261;SDS011;39658;51.090;-1.786;2022-07-10T03:19:06;7.25;;;1.98;;
53261;SDS011;39658;51.090;-1.786;2022-07-10T03:21:34;6.10;;;2.05;;
53261;SDS011;39658;51.090;-1.786;2022-07-10T03:24:01;6.35;;;2.25;;
53261;SDS011;39658;51.090;-1.786;2022-07-10T03:26:28;7.00;;;1.90;;
53261;SDS011;39658;51.090;-1.786;2022-07-10T03:28:55;6.07;;;1.83;;
53261;SDS011;39658;51.090;-1.786;2022-07-10T03:31:22;6.00;;;1.92;;
53261;SDS011;39658;51.090;-1.786;2022-07-10T03:33:49;8.37;;;2.20;;
53261;SDS011;39658;51.090;-1.786;2022-07-10T03:36:17;7.95;;;2.20;;
53261;SDS011;39658;51.090;-1.786;2022-07-10T03:38:46;6.18;;;1.90;;
53261;SDS011;39658;51.090;-1.786;2022-07-10T03:41:12;6.93;;;2.38;;
53261;SDS011;39658;51.090;-1.786;2022-07-10T03:43:39;5.88;;;2.00;;
53261;SDS011;39658;51.090;-1.786;2022-07-10T03:46:06;8.98;;;2.10;;
53261;SDS011;39658;51.090;-1.786;2022-07-10T03:48:33;9.90;;;2.20;;
53261;SDS011;39658;51.090;-1.786;2022-07-10T03:51:00;6.05;;;1.95;;
53261;SDS011;39658;51.090;-1.786;2022-07-10T03:53:27;11.43;;;2.30;;
53261;SDS011;39658;51.090;-1.786;2022-07-10T03:55:55;6.43;;;2.30;;
53261;SDS011;39658;51.090;-1.786;2022-07-10T03:58:22;7.97;;;3.10;;
53261;SDS011;39658;51.090;-1.786;2022-07-10T04:00:48;6.60;;;2.88;;
53261;SDS011;39658;51.090;-1.786;2022-07-10T04:03:14;7.30;;;2.30;;
53261;SDS011;39658;51.090;-1.786;2022-07-10T04:05:41;7.55;;;2.33;;
53261;SDS011;39658;51.090;-1.786;2022-07-10T04:08:08;6.80;;;2.35;;
53261;SDS011;39658;51.090;-1.786;2022-07-10T04:10:35;7.38;;;2.13;;
53261;SDS011;39658;51.090;-1.786;2022-07-10T04:13:03;9.45;;;2.50;;
53261;SDS011;39658;51.090;-1.786;2022-07-10T04:15:30;7.03;;;2.25;;
53261;SDS011;39658;51.090;-1.786;2022-07-10T04:17:57;7.70;;;3.08;;
53261;SDS011;39658;51.090;-1.786;2022-07-10T04:20:24;8.68;;;2.65;;
53261;SDS011;39658;51.090;-1.786;2022-07-10T04:22:51;9.15;;;2.50;;
53261;SDS011;39658;51.090;-1.786;2022-07-10T04:25:17;6.68;;;2.45;;
53261;SDS011;39658;51.090;-1.786;2022-07-10T04:27:44;15.07;;;2.72;;
53261;SDS011;39658;51.090;-1.786;2022-07-10T04:30:12;6.13;;;2.40;;
53261;SDS011;39658;51.090;-1.786;2022-07-10T04:32:39;6.75;;;2.50;;
53261;SDS011;39658;51.090;-1.786;2022-07-10T04:35:06;6.50;;;2.10;;
53261;SDS011;39658;51.090;-1.786;2022-07-10T04:37:34;12.48;;;2.63;;
53261;SDS011;39658;51.090;-1.786;2022-07-10T04:40:02;5.90;;;2.00;;
53261;SDS011;39658;51.090;-1.786;2022-07-10T04:42:29;7.35;;;2.10;;
53261;SDS011;39658;51.090;-1.786;2022-07-10T04:44:56;8.73;;;2.50;;
53261;SDS011;39658;51.090;-1.786;2022-07-10T04:47:24;16.08;;;2.42;;
53261;SDS011;39658;51.090;-1.786;2022-07-10T04:49:52;7.07;;;2.15;;
53261;SDS011;39658;51.090;-1.786;2022-07-10T04:52:18;9.35;;;2.60;;
53261;SDS011;39658;51.090;-1.786;2022-07-10T04:54:45;7.53;;;2.70;;
53261;SDS011;39658;51.090;-1.786;2022-07-10T04:57:12;8.35;;;2.22;;
53261;SDS011;39658;51.090;-1.786;2022-07-10T04:59:39;13.30;;;2.60;;
53261;SDS011;39658;51.090;-1.786;2022-07-10T05:02:05;7.00;;;2.20;;
53261;SDS011;39658;51.090;-1.786;2022-07-10T05:04:34;7.93;;;2.50;;
53261;SDS011;39658;51.090;-1.786;2022-07-10T05:07:01;5.63;;;2.25;;
53261;SDS011;39658;51.090;-1.786;2022-07-10T05:09:28;8.55;;;1.95;;
53261;SDS011;39658;51.090;-1.786;2022-07-10T05:11:55;7.43;;;2.35;;
53261;SDS011;39658;51.090;-1.786;2022-07-10T05:14:22;9.07;;;2.10;;
53261;SDS011;39658;51.090;-1.786;2022-07-10T05:16:50;8.25;;;2.15;;
53261;SDS011;39658;51.090;-1.786;2022-07-10T05:19:17;8.30;;;2.40;;
53261;SDS011;39658;51.090;-1.786;2022-07-10T05:21:46;9.25;;;2.30;;
53261;SDS011;39658;51.090;-1.786;2022-07-10T05:24:12;12.32;;;2.75;;
53261;SDS011;39658;51.090;-1.786;2022-07-10T05:26:39;6.85;;;2.13;;
53261;SDS011;39658;51.090;-1.786;2022-07-10T05:29:06;6.47;;;2.15;;
53261;SDS011;39658;51.090;-1.786;2022-07-10T05:31:33;8.35;;;1.95;;
53261;SDS011;39658;51.090;-1.786;2022-07-10T05:34:00;7.77;;;2.07;;
53261;SDS011;39658;51.090;-1.786;2022-07-10T05:36:27;10.05;;;2.15;;
53261;SDS011;39658;51.090;-1.786;2022-07-10T05:38:55;10.40;;;2.30;;
53261;SDS011;39658;51.090;-1.786;2022-07-10T05:41:22;10.65;;;2.20;;
53261;SDS011;39658;51.090;-1.786;2022-07-10T05:43:48;8.73;;;2.50;;
53261;SDS011;39658;51.090;-1.786;2022-07-10T05:46:15;11.82;;;2.60;;
53261;SDS011;39658;51.090;-1.786;2022-07-10T05:48:42;9.13;;;2.17;;
53261;SDS011;39658;51.090;-1.786;2022-07-10T05:51:09;9.85;;;2.40;;
53261;SDS011;39658;51.090;-1.786;2022-07-10T05:53:35;9.23;;;2.40;;
53261;SDS011;39658;51.090;-1.786;2022-07-10T05:56:04;7.40;;;2.10;;
53261;SDS011;39658;51.090;-1.786;2022-07-10T05:58:32;7.63;;;2.08;;
53261;SDS011;39658;51.090;-1.786;2022-07-10T06:00:58;5.75;;;2.08;;
53261;SDS011;39658;51.090;-1.786;2022-07-10T06:03:25;6.60;;;2.00;;
53261;SDS011;39658;51.090;-1.786;2022-07-10T06:05:52;12.20;;;2.25;;
53261;SDS011;39658;51.090;-1.786;2022-07-10T06:08:19;11.18;;;2.38;;
53261;SDS011;39658;51.090;-1.786;2022-07-10T06:10:45;6.50;;;2.10;;
53261;SDS011;39658;51.090;-1.786;2022-07-10T06:13:14;11.55;;;2.15;;
53261;SDS011;39658;51.090;-1.786;2022-07-10T06:15:40;6.93;;;2.05;;
53261;SDS011;39658;51.090;-1.786;2022-07-10T06:18:07;8.50;;;2.20;;
53261;SDS011;39658;51.090;-1.786;2022-07-10T06:20:34;9.32;;;2.22;;
53261;SDS011;39658;51.090;-1.786;2022-07-10T06:23:01;9.18;;;1.83;;
53261;SDS011;39658;51.090;-1.786;2022-07-10T06:25:28;6.57;;;2.13;;
53261;SDS011;39658;51.090;-1.786;2022-07-10T06:27:55;9.52;;;2.40;;
53261;SDS011;39658;51.090;-1.786;2022-07-10T06:30:23;11.80;;;2.50;;
53261;SDS011;39658;51.090;-1.786;2022-07-10T06:32:50;9.32;;;2.20;;
53261;SDS011;39658;51.090;-1.786;2022-07-10T06:35:17;13.97;;;2.43;;
53261;SDS011;39658;51.090;-1.786;2022-07-10T06:37:44;11.52;;;2.50;;
53261;SDS011;39658;51.090;-1.786;2022-07-10T06:40:11;10.33;;;2.70;;
53261;SDS011;39658;51.090;-1.786;2022-07-10T06:42:40;6.32;;;2.20;;
53261;SDS011;39658;51.090;-1.786;2022-07-10T06:45:07;7.95;;;2.33;;
53261;SDS011;39658;51.090;-1.786;2022-07-10T06:47:36;10.82;;;2.38;;
53261;SDS011;39658;51.090;-1.786;2022-07-10T06:50:21;6.90;;;2.30;;
53261;SDS011;39658;51.090;-1.786;2022-07-10T06:52:49;9.98;;;2.25;;
53261;SDS011;39658;51.090;-1.786;2022-07-10T06:55:16;7.10;;;2.35;;
53261;SDS011;39658;51.090;-1.786;2022-07-10T06:57:44;9.57;;;2.33;;
53261;SDS011;39658;51.090;-1.786;2022-07-10T07:00:11;9.38;;;2.40;;
53261;SDS011;39658;51.090;-1.786;2022-07-10T07:02:39;9.20;;;2.58;;
53261;SDS011;39658;51.090;-1.786;2022-07-10T07:05:06;7.80;;;2.90;;
53261;SDS011;39658;51.090;-1.786;2022-07-10T07:07:34;14.80;;;3.00;;
53261;SDS011;39658;51.090;-1.786;2022-07-10T07:10:01;13.60;;;3.45;;
53261;SDS011;39658;51.090;-1.786;2022-07-10T07:12:28;7.72;;;3.50;;
53261;SDS011;39658;51.090;-1.786;2022-07-10T07:14:55;12.43;;;4.63;;
53261;SDS011;39658;51.090;-1.786;2022-07-10T07:17:22;10.25;;;5.70;;
53261;SDS011;39658;51.090;-1.786;2022-07-10T07:19:52;10.43;;;5.95;;
53261;SDS011;39658;51.090;-1.786;2022-07-10T07:22:39;11.48;;;5.90;;
53261;SDS011;39658;51.090;-1.786;2022-07-10T07:25:23;13.23;;;6.40;;
53261;SDS011;39658;51.090;-1.786;2022-07-10T07:27:50;11.77;;;5.88;;
53261;SDS011;39658;51.090;-1.786;2022-07-10T07:30:17;12.52;;;6.90;;
53261;SDS011;39658;51.090;-1.786;2022-07-10T07:32:44;11.43;;;6.22;;
53261;SDS011;39658;51.090;-1.786;2022-07-10T07:35:15;11.05;;;7.05;;
53261;SDS011;39658;51.090;-1.786;2022-07-10T07:37:42;9.23;;;6.60;;
53261;SDS011;39658;51.090;-1.786;2022-07-10T07:40:11;12.85;;;6.38;;
53261;SDS011;39658;51.090;-1.786;2022-07-10T07:42:39;12.35;;;5.75;;
53261;SDS011;39658;51.090;-1.786;2022-07-10T07:45:07;9.65;;;5.50;;
53261;SDS011;39658;51.090;-1.786;2022-07-10T07:47:42;10.80;;;5.38;;
53261;SDS011;39658;51.090;-1.786;2022-07-10T07:50:11;11.82;;;4.65;;
53261;SDS011;39658;51.090;-1.786;2022-07-10T07:52:39;11.52;;;5.32;;
53261;SDS011;39658;51.090;-1.786;2022-07-10T07:55:07;11.13;;;5.10;;
53261;SDS011;39658;51.090;-1.786;2022-07-10T07:57:35;13.80;;;5.30;;
53261;SDS011;39658;51.090;-1.786;2022-07-10T08:00:02;9.82;;;4.50;;
53261;SDS011;39658;51.090;-1.786;2022-07-10T08:02:31;11.30;;;4.95;;
53261;SDS011;39658;51.090;-1.786;2022-07-10T08:04:58;8.27;;;5.07;;
53261;SDS011;39658;51.090;-1.786;2022-07-10T08:07:32;8.02;;;4.32;;
53261;SDS011;39658;51.090;-1.786;2022-07-10T08:10:01;10.32;;;4.72;;
53261;SDS011;39658;51.090;-1.786;2022-07-10T08:12:28;9.18;;;4.80;;
53261;SDS011;39658;51.090;-1.786;2022-07-10T08:14:55;9.20;;;5.03;;
53261;SDS011;39658;51.090;-1.786;2022-07-10T08:17:23;8.88;;;5.80;;
53261;SDS011;39658;51.090;-1.786;2022-07-10T08:19:49;11.00;;;5.72;;
53261;SDS011;39658;51.090;-1.786;2022-07-10T08:22:16;11.55;;;5.55;;
53261;SDS011;39658;51.090;-1.786;2022-07-10T08:24:43;11.57;;;5.85;;
53261;SDS011;39658;51.090;-1.786;2022-07-10T08:27:12;11.38;;;6.78;;
53261;SDS011;39658;51.090;-1.786;2022-07-10T08:29:38;11.40;;;5.75;;
53261;SDS011;39658;51.090;-1.786;2022-07-10T08:32:05;9.73;;;5.80;;
53261;SDS011;39658;51.090;-1.786;2022-07-10T08:34:34;11.02;;;6.88;;
53261;SDS011;39658;51.090;-1.786;2022-07-10T08:37:01;10.25;;;6.32;;
53261;SDS011;39658;51.090;-1.786;2022-07-10T08:39:28;9.57;;;6.63;;
53261;SDS011;39658;51.090;-1.786;2022-07-10T08:41:55;11.23;;;6.68;;
53261;SDS011;39658;51.090;-1.786;2022-07-10T08:44:23;9.98;;;5.90;;
53261;SDS011;39658;51.090;-1.786;2022-07-10T08:46:50;10.50;;;6.32;;
53261;SDS011;39658;51.090;-1.786;2022-07-10T08:49:17;9.85;;;5.30;;
53261;SDS011;39658;51.090;-1.786;2022-07-10T08:51:52;13.85;;;6.13;;
53261;SDS011;39658;51.090;-1.786;2022-07-10T08:54:23;13.30;;;6.27;;
53261;SDS011;39658;51.090;-1.786;2022-07-10T08:56:53;8.50;;;5.00;;
53261;SDS011;39658;51.090;-1.786;2022-07-10T08:59:24;10.20;;;5.60;;
53261;SDS011;39658;51.090;-1.786;2022-07-10T09:01:51;11.73;;;6.00;;
53261;SDS011;39658;51.090;-1.786;2022-07-10T09:04:19;8.60;;;5.07;;
53261;SDS011;39658;51.090;-1.786;2022-07-10T09:06:48;9.90;;;5.30;;
53261;SDS011;39658;51.090;-1.786;2022-07-10T09:09:15;9.05;;;5.25;;
53261;SDS011;39658;51.090;-1.786;2022-07-10T09:11:42;8.82;;;4.88;;
53261;SDS011;39658;51.090;-1.786;2022-07-10T09:14:09;10.10;;;4.82;;
53261;SDS011;39658;51.090;-1.786;2022-07-10T09:16:40;10.25;;;4.55;;
53261;SDS011;39658;51.090;-1.786;2022-07-10T09:19:14;10.65;;;4.35;;
53261;SDS011;39658;51.090;-1.786;2022-07-10T09:21:43;8.45;;;4.30;;
53261;SDS011;39658;51.090;-1.786;2022-07-10T09:24:10;8.02;;;4.00;;
53261;SDS011;39658;51.090;-1.786;2022-07-10T09:26:37;8.13;;;4.60;;
53261;SDS011;39658;51.090;-1.786;2022-07-10T09:29:05;7.40;;;3.97;;
53261;SDS011;39658;51.090;-1.786;2022-07-10T09:34:17;8.57;;;4.00;;
53261;SDS011;39658;51.090;-1.786;2022-07-10T09:36:44;9.03;;;3.67;;
53261;SDS011;39658;51.090;-1.786;2022-07-10T09:39:11;9.10;;;4.25;;
53261;SDS011;39658;51.090;-1.786;2022-07-10T09:41:38;7.90;;;3.78;;
53261;SDS011;39658;51.090;-1.786;2022-07-10T09:44:05;9.80;;;3.70;;
53261;SDS011;39658;51.090;-1.786;2022-07-10T09:46:33;9.27;;;4.45;;
53261;SDS011;39658;51.090;-1.786;2022-07-10T09:49:06;12.35;;;3.60;;
53261;SDS011;39658;51.090;-1.786;2022-07-10T09:51:35;10.27;;;3.55;;
53261;SDS011;39658;51.090;-1.786;2022-07-10T09:54:04;6.45;;;3.58;;
53261;SDS011;39658;51.090;-1.786;2022-07-10T09:56:33;7.68;;;3.30;;
53261;SDS011;39658;51.090;-1.786;2022-07-10T09:59:07;7.35;;;3.60;;
53261;SDS011;39658;51.090;-1.786;2022-07-10T10:01:36;7.30;;;3.13;;
53261;SDS011;39658;51.090;-1.786;2022-07-10T10:04:04;7.55;;;3.60;;
53261;SDS011;39658;51.090;-1.786;2022-07-10T10:06:32;7.15;;;3.40;;
53261;SDS011;39658;51.090;-1.786;2022-07-10T10:09:03;6.88;;;3.20;;
53261;SDS011;39658;51.090;-1.786;2022-07-10T10:11:32;6.57;;;2.85;;
53261;SDS011;39658;51.090;-1.786;2022-07-10T10:14:02;10.55;;;3.03;;
53261;SDS011;39658;51.090;-1.786;2022-07-10T10:16:29;8.48;;;2.78;;
53261;SDS011;39658;51.090;-1.786;2022-07-10T10:18:57;5.43;;;2.25;;
53261;SDS011;39658;51.090;-1.786;2022-07-10T10:21:44;5.88;;;2.65;;
53261;SDS011;39658;51.090;-1.786;2022-07-10T10:24:11;5.50;;;2.58;;
53261;SDS011;39658;51.090;-1.786;2022-07-10T10:26:40;7.38;;;2.53;;
53261;SDS011;39658;51.090;-1.786;2022-07-10T10:29:08;7.00;;;3.00;;
53261;SDS011;39658;51.090;-1.786;2022-07-10T10:31:36;5.28;;;2.00;;
53261;SDS011;39658;51.090;-1.786;2022-07-10T10:34:05;9.40;;;2.55;;
53261;SDS011;39658;51.090;-1.786;2022-07-10T10:36:46;5.63;;;2.08;;
53261;SDS011;39658;51.090;-1.786;2022-07-10T10:39:14;4.90;;;2.00;;
53261;SDS011;39658;51.090;-1.786;2022-07-10T10:41:48;8.43;;;2.10;;
53261;SDS011;39658;51.090;-1.786;2022-07-10T10:44:20;5.88;;;1.90;;
53261;SDS011;39658;51.090;-1.786;2022-07-10T10:46:53;7.20;;;1.90;;
53261;SDS011;39658;51.090;-1.786;2022-07-10T10:49:26;5.07;;;2.42;;
53261;SDS011;39658;51.090;-1.786;2022-07-10T10:52:15;5.15;;;2.05;;
53261;SDS011;39658;51.090;-1.786;2022-07-10T10:55:05;5.18;;;2.42;;
53261;SDS011;39658;51.090;-1.786;2022-07-10T10:57:38;5.03;;;2.08;;
53261;SDS011;39658;51.090;-1.786;2022-07-10T11:00:14;5.65;;;2.47;;
53261;SDS011;39658;51.090;-1.786;2022-07-10T11:05:56;6.95;;;2.35;;
53261;SDS011;39658;51.090;-1.786;2022-07-10T11:08:37;5.85;;;2.33;;
53261;SDS011;39658;51.090;-1.786;2022-07-10T11:14:06;5.30;;;1.80;;
53261;SDS011;39658;51.090;-1.786;2022-07-10T11:16:35;6.13;;;1.80;;
53261;SDS011;39658;51.090;-1.786;2022-07-10T11:19:03;5.75;;;1.98;;
53261;SDS011;39658;51.090;-1.786;2022-07-10T11:21:32;6.85;;;1.95;;
53261;SDS011;39658;51.090;-1.786;2022-07-10T11:24:18;6.75;;;2.05;;
53261;SDS011;39658;51.090;-1.786;2022-07-10T11:27:02;8.02;;;1.80;;
53261;SDS011;39658;51.090;-1.786;2022-07-10T11:29:41;4.97;;;1.77;;
53261;SDS011;39658;51.090;-1.786;2022-07-10T11:32:14;6.72;;;2.35;;
53261;SDS011;39658;51.090;-1.786;2022-07-10T11:34:42;9.20;;;1.80;;
53261;SDS011;39658;51.090;-1.786;2022-07-10T11:37:13;8.88;;;2.20;;
53261;SDS011;39658;51.090;-1.786;2022-07-10T11:39:42;4.15;;;1.70;;
53261;SDS011;39658;51.090;-1.786;2022-07-10T11:42:09;5.20;;;1.90;;
53261;SDS011;39658;51.090;-1.786;2022-07-10T11:44:36;5.65;;;1.70;;
53261;SDS011;39658;51.090;-1.786;2022-07-10T11:47:03;5.07;;;1.63;;
53261;SDS011;39658;51.090;-1.786;2022-07-10T11:49:32;7.43;;;2.00;;
53261;SDS011;39658;51.090;-1.786;2022-07-10T11:52:01;6.82;;;1.80;;
53261;SDS011;39658;51.090;-1.786;2022-07-10T11:54:29;7.13;;;1.90;;
53261;SDS011;39658;51.090;-1.786;2022-07-10T11:57:04;4.03;;;1.63;;
53261;SDS011;39658;51.090;-1.786;2022-07-10T11:59:31;6.38;;;1.60;;
53261;SDS011;39658;51.090;-1.786;2022-07-10T12:01:58;3.78;;;1.67;;
53261;SDS011;39658;51.090;-1.786;2022-07-10T12:04:25;5.40;;;2.03;;
53261;SDS011;39658;51.090;-1.786;2022-07-10T12:06:56;4.68;;;1.80;;
53261;SDS011;39658;51.090;-1.786;2022-07-10T12:09:23;7.40;;;1.83;;
53261;SDS011;39658;51.090;-1.786;2022-07-10T12:11:59;5.30;;;2.10;;
53261;SDS011;39658;51.090;-1.786;2022-07-10T12:14:27;8.00;;;2.03;;
53261;SDS011;39658;51.090;-1.786;2022-07-10T12:16:54;4.25;;;1.92;;
53261;SDS011;39658;51.090;-1.786;2022-07-10T12:19:23;5.70;;;1.60;;
53261;SDS011;39658;51.090;-1.786;2022-07-10T12:21:53;5.20;;;1.77;;
53261;SDS011;39658;51.090;-1.786;2022-07-10T12:24:20;5.47;;;1.83;;
53261;SDS011;39658;51.090;-1.786;2022-07-10T12:26:49;6.88;;;2.20;;
53261;SDS011;39658;51.090;-1.786;2022-07-10T12:29:23;5.97;;;1.90;;
53261;SDS011;39658;51.090;-1.786;2022-07-10T12:31:52;3.40;;;1.67;;
53261;SDS011;39658;51.090;-1.786;2022-07-10T12:34:32;4.43;;;1.83;;
53261;SDS011;39658;51.090;-1.786;2022-07-10T12:37:05;4.40;;;1.90;;
53261;SDS011;39658;51.090;-1.786;2022-07-10T12:39:35;5.32;;;1.70;;
53261;SDS011;39658;51.090;-1.786;2022-07-10T12:42:04;3.50;;;1.55;;
53261;SDS011;39658;51.090;-1.786;2022-07-10T12:44:36;3.78;;;1.42;;
53261;SDS011;39658;51.090;-1.786;2022-07-10T12:47:05;4.55;;;1.73;;
53261;SDS011;39658;51.090;-1.786;2022-07-10T12:49:47;8.95;;;1.98;;
53261;SDS011;39658;51.090;-1.786;2022-07-10T12:52:22;4.88;;;1.83;;
53261;SDS011;39658;51.090;-1.786;2022-07-10T12:55:04;4.70;;;1.80;;
53261;SDS011;39658;51.090;-1.786;2022-07-10T12:57:32;6.05;;;2.00;;
53261;SDS011;39658;51.090;-1.786;2022-07-10T13:00:04;4.55;;;1.90;;
53261;SDS011;39658;51.090;-1.786;2022-07-10T13:02:32;6.45;;;1.65;;
53261;SDS011;39658;51.090;-1.786;2022-07-10T13:04:59;4.80;;;1.52;;
53261;SDS011;39658;51.090;-1.786;2022-07-10T13:07:29;4.95;;;1.80;;
53261;SDS011;39658;51.090;-1.786;2022-07-10T13:09:58;4.10;;;1.70;;
53261;SDS011;39658;51.090;-1.786;2022-07-10T13:12:26;4.65;;;1.70;;
53261;SDS011;39658;51.090;-1.786;2022-07-10T13:14:53;4.60;;;1.55;;
53261;SDS011;39658;51.090;-1.786;2022-07-10T13:17:21;4.20;;;1.47;;
53261;SDS011;39658;51.090;-1.786;2022-07-10T13:19:49;5.72;;;1.90;;
53261;SDS011;39658;51.090;-1.786;2022-07-10T13:22:16;4.25;;;1.67;;
53261;SDS011;39658;51.090;-1.786;2022-07-10T13:24:43;4.32;;;1.45;;
53261;SDS011;39658;51.090;-1.786;2022-07-10T13:27:10;4.95;;;1.63;;
53261;SDS011;39658;51.090;-1.786;2022-07-10T13:29:37;4.35;;;1.50;;
53261;SDS011;39658;51.090;-1.786;2022-07-10T13:32:04;4.40;;;1.77;;
53261;SDS011;39658;51.090;-1.786;2022-07-10T13:34:33;3.95;;;1.60;;
53261;SDS011;39658;51.090;-1.786;2022-07-10T13:37:01;7.72;;;1.90;;
53261;SDS011;39658;51.090;-1.786;2022-07-10T13:39:29;4.45;;;1.67;;
53261;SDS011;39658;51.090;-1.786;2022-07-10T13:41:55;3.75;;;1.67;;
53261;SDS011;39658;51.090;-1.786;2022-07-10T13:44:22;4.95;;;1.70;;
53261;SDS011;39658;51.090;-1.786;2022-07-10T13:46:49;5.03;;;1.92;;
53261;SDS011;39658;51.090;-1.786;2022-07-10T13:49:16;3.85;;;1.80;;
53261;SDS011;39658;51.090;-1.786;2022-07-10T13:51:44;3.22;;;1.50;;
53261;SDS011;39658;51.090;-1.786;2022-07-10T13:54:11;3.05;;;1.38;;
53261;SDS011;39658;51.090;-1.786;2022-07-10T13:56:38;5.70;;;1.60;;
53261;SDS011;39658;51.090;-1.786;2022-07-10T13:59:04;4.00;;;1.65;;
53261;SDS011;39658;51.090;-1.786;2022-07-10T14:01:31;7.10;;;1.73;;
53261;SDS011;39658;51.090;-1.786;2022-07-10T14:03:58;6.15;;;1.45;;
53261;SDS011;39658;51.090;-1.786;2022-07-10T14:06:26;3.80;;;1.40;;
53261;SDS011;39658;51.090;-1.786;2022-07-10T14:08:54;3.33;;;1.40;;
53261;SDS011;39658;51.090;-1.786;2022-07-10T14:11:21;3.55;;;1.48;;
53261;SDS011;39658;51.090;-1.786;2022-07-10T14:13:47;3.03;;;1.40;;
53261;SDS011;39658;51.090;-1.786;2022-07-10T14:16:14;4.85;;;1.58;;
53261;SDS011;39658;51.090;-1.786;2022-07-10T14:18:41;4.05;;;1.58;;
53261;SDS011;39658;51.090;-1.786;2022-07-10T14:21:09;4.77;;;1.63;;
53261;SDS011;39658;51.090;-1.786;2022-07-10T14:23:38;4.00;;;1.63;;
53261;SDS011;39658;51.090;-1.786;2022-07-10T14:26:08;4.30;;;1.60;;
53261;SDS011;39658;51.090;-1.786;2022-07-10T14:28:35;3.67;;;1.58;;
53261;SDS011;39658;51.090;-1.786;2022-07-10T14:31:02;4.28;;;1.60;;
53261;SDS011;39658;51.090;-1.786;2022-07-10T14:33:29;5.25;;;1.70;;
53261;SDS011;39658;51.090;-1.786;2022-07-10T14:35:57;7.35;;;2.63;;
53261;SDS011;39658;51.090;-1.786;2022-07-10T14:38:23;4.22;;;1.50;;
53261;SDS011;39658;51.090;-1.786;2022-07-10T14:40:50;5.82;;;1.60;;
53261;SDS011;39658;51.090;-1.786;2022-07-10T14:43:19;5.05;;;1.80;;
53261;SDS011;39658;51.090;-1.786;2022-07-10T14:45:46;4.28;;;1.67;;